Terminal Aerodrome Forecast
Issued by NWS

Home | Current Version | Previous Version | Graphics & Text | Print | Product List | Glossary On
Versions: 1 2 3 4 5 6 7 8 9 10 11 12 13 14 15 16 17 18
000
FTUS41 KCLE 201100
TAFFDY
TAF
KFDY 201134Z 2012/2112 00000KT 2SM BR SCT004 SCT070
      TEMPO 2012/2013 1/4SM FG VV001
     FM201400 VRB03KT P6SM SCT025 SCT070
     FM201500 13003KT P6SM SCT050
     FM202100 17004KT P6SM SCT250
     FM210600 VRB03KT 4SM BR SKC=

USA.gov is the U.S. government's official web portal to all federal, state and local government web resources and services.